createdAt,value
2022-10-22T00:00:08.800Z,90.79
2022-10-22T00:02:35.756Z,91.32
2022-10-22T00:05:02.461Z,88.83
2022-10-22T00:07:30.386Z,87.33
2022-10-22T00:09:57.068Z,86.73
2022-10-22T00:12:24.438Z,86.57
2022-10-22T00:14:51.105Z,86.72
2022-10-22T00:17:17.742Z,86.32
2022-10-22T00:19:44.675Z,86.74
2022-10-22T00:22:12.066Z,86.12
2022-10-22T00:24:39.932Z,86.24
2022-10-22T00:27:07.871Z,87.00
2022-10-22T00:29:34.913Z,86.67
2022-10-22T00:32:01.866Z,87.26
2022-10-22T00:34:28.722Z,87.70
2022-10-22T00:36:55.665Z,87.56
2022-10-22T00:39:24.936Z,88.05
2022-10-22T00:41:53.465Z,88.37
2022-10-22T00:44:57.845Z,88.63
2022-10-22T00:47:28.097Z,90.23
2022-10-22T00:49:56.185Z,89.99
2022-10-22T00:52:22.968Z,91.05
2022-10-22T00:54:50.874Z,90.54
2022-10-22T00:57:19.607Z,90.99
2022-10-22T00:59:46.955Z,91.55
2022-10-22T01:02:14.125Z,91.03
2022-10-22T01:04:41.518Z,91.39
2022-10-22T01:07:20.126Z,91.47
2022-10-22T01:10:10.901Z,91.54
2022-10-22T01:12:49.119Z,92.38
2022-10-22T01:15:24.684Z,93.04
2022-10-22T01:18:05.258Z,93.45
2022-10-22T01:21:26.081Z,94.11
2022-10-22T01:24:13.724Z,92.95
2022-10-22T01:26:55.251Z,93.52
2022-10-22T01:29:30.603Z,94.13
2022-10-22T01:32:00.985Z,94.14
2022-10-22T01:34:30.226Z,95.04
2022-10-22T01:36:59.117Z,95.30
2022-10-22T01:39:28.189Z,96.42
2022-10-22T01:41:56.178Z,96.24
2022-10-22T01:44:50.096Z,95.75
2022-10-22T01:47:40.190Z,95.94
2022-10-22T01:50:45.247Z,95.98
2022-10-22T01:53:53.465Z,97.42
2022-10-22T01:56:41.514Z,98.09
2022-10-22T01:59:57.903Z,98.17
2022-10-22T02:02:36.001Z,98.28
2022-10-22T02:05:16.518Z,98.62
2022-10-22T02:07:54.282Z,99.33
2022-10-22T02:10:22.637Z,98.58
2022-10-22T02:12:51.958Z,98.81
2022-10-22T02:15:39.871Z,100.00
2022-10-22T02:18:09.453Z,99.86
2022-10-22T02:20:38.503Z,98.72
2022-10-22T02:23:05.605Z,99.76
2022-10-22T02:25:36.239Z,98.99
2022-10-22T02:28:09.334Z,100.00
2022-10-22T02:30:38.512Z,99.38
2022-10-22T02:33:17.949Z,100.00
2022-10-22T02:35:45.254Z,100.00
2022-10-22T02:38:13.329Z,99.87
2022-10-22T02:40:40.018Z,99.36
2022-10-22T02:43:07.023Z,99.98
2022-10-22T02:45:34.724Z,98.72
2022-10-22T02:48:01.860Z,99.03
2022-10-22T02:50:28.552Z,98.84
2022-10-22T02:52:55.119Z,99.90
2022-10-22T02:55:21.740Z,99.79
2022-10-22T02:57:48.297Z,100.00
2022-10-22T03:00:15.350Z,100.00
2022-10-22T03:02:41.968Z,100.00
2022-10-22T03:05:09.003Z,99.90
2022-10-22T03:07:35.770Z,99.37
2022-10-22T03:10:02.523Z,98.24
2022-10-22T03:12:30.564Z,98.08
2022-10-22T03:14:57.154Z,99.13
2022-10-22T03:17:23.840Z,100.00
2022-10-22T03:19:50.442Z,100.00
2022-10-22T03:22:24.997Z,100.00
2022-10-22T03:24:55.565Z,100.00
2022-10-22T03:27:22.933Z,100.00
2022-10-22T03:29:52.308Z,98.64
2022-10-22T03:32:19.527Z,97.73
2022-10-22T03:34:46.117Z,98.60
2022-10-22T03:37:12.957Z,97.12
2022-10-22T03:39:40.092Z,95.13
2022-10-22T03:42:08.103Z,95.90
2022-10-22T03:44:37.951Z,97.38
2022-10-22T03:47:04.657Z,98.42
2022-10-22T03:49:31.315Z,98.09
2022-10-22T03:51:58.259Z,99.49
2022-10-22T03:54:24.900Z,97.38
2022-10-22T03:56:51.531Z,98.27
2022-10-22T03:59:18.228Z,95.63
2022-10-22T04:01:44.814Z,94.72
2022-10-22T04:04:11.552Z,96.65
2022-10-22T04:06:38.198Z,96.88
2022-10-22T04:09:04.827Z,95.83
2022-10-22T04:11:31.562Z,96.43
2022-10-22T04:13:58.137Z,94.93
2022-10-22T04:16:27.388Z,93.41
2022-10-22T04:18:56.912Z,92.86
2022-10-22T04:21:23.829Z,92.23
2022-10-22T04:23:52.529Z,92.42
2022-10-22T04:26:19.905Z,92.83
2022-10-22T04:28:48.034Z,93.24
2022-10-22T04:31:18.387Z,93.25
2022-10-22T04:33:45.813Z,93.15
2022-10-22T04:36:18.188Z,93.14
2022-10-22T04:38:46.278Z,93.51
2022-10-22T04:41:19.377Z,95.26
2022-10-22T04:43:46.493Z,95.06
2022-10-22T04:46:15.333Z,95.41
2022-10-22T04:48:43.749Z,96.37
2022-10-22T04:51:18.671Z,97.35
2022-10-22T04:53:45.592Z,99.11
2022-10-22T04:56:20.483Z,98.86
2022-10-22T04:58:52.906Z,98.20
2022-10-22T05:01:22.635Z,98.50
2022-10-22T05:03:50.946Z,98.15
2022-10-22T05:06:18.510Z,98.46
2022-10-22T05:08:45.237Z,99.25
2022-10-22T05:11:18.103Z,100.00
2022-10-22T05:13:45.365Z,100.00
2022-10-22T05:16:12.346Z,99.97
2022-10-22T05:18:41.197Z,100.00
2022-10-22T05:21:10.460Z,99.17
2022-10-22T05:23:37.347Z,99.99
2022-10-22T05:26:06.299Z,100.00
2022-10-22T05:28:33.621Z,99.59
2022-10-22T05:31:01.635Z,97.83
2022-10-22T05:33:29.854Z,98.35
2022-10-22T05:35:57.346Z,97.37
2022-10-22T05:38:24.382Z,95.13
2022-10-22T05:41:05.980Z,94.10
2022-10-22T05:43:33.002Z,94.35
2022-10-22T05:46:11.814Z,94.34
2022-10-22T05:48:38.988Z,94.33
2022-10-22T05:51:08.771Z,94.43
2022-10-22T05:53:37.955Z,95.00
2022-10-22T05:56:07.558Z,95.54
2022-10-22T05:58:34.906Z,96.86
2022-10-22T06:01:07.064Z,96.99
2022-10-22T06:03:33.945Z,96.91
2022-10-22T06:06:02.074Z,96.78
2022-10-22T06:08:29.793Z,97.36
2022-10-22T06:10:57.369Z,97.80
2022-10-22T06:13:23.962Z,98.36
2022-10-22T06:15:52.627Z,97.04
2022-10-22T06:18:19.891Z,97.57
2022-10-22T06:20:47.582Z,97.11
2022-10-22T06:23:15.233Z,98.52
2022-10-22T06:25:42.596Z,98.98
2022-10-22T06:28:09.691Z,98.48
2022-10-22T06:30:41.786Z,99.96
2022-10-22T06:33:10.914Z,100.00
2022-10-22T06:35:37.589Z,100.00
2022-10-22T06:38:04.200Z,100.00
2022-10-22T06:40:30.853Z,100.00
2022-10-22T06:43:01.974Z,100.00
2022-10-22T06:45:28.702Z,100.00
2022-10-22T06:47:55.787Z,100.00
2022-10-22T06:50:22.662Z,100.00
2022-10-22T06:52:49.304Z,97.57
2022-10-22T06:55:16.072Z,93.25
2022-10-22T06:57:43.261Z,94.04
2022-10-22T07:00:10.982Z,93.53
2022-10-22T07:02:37.867Z,94.83
2022-10-22T07:05:05.008Z,93.99
2022-10-22T07:07:31.644Z,95.16
2022-10-22T07:09:58.226Z,95.53
2022-10-22T07:12:25.458Z,95.44
2022-10-22T07:14:52.046Z,94.97
2022-10-22T07:17:18.666Z,93.38
2022-10-22T07:19:48.434Z,91.96
2022-10-22T07:22:17.873Z,90.83
2022-10-22T07:24:44.506Z,89.88
2022-10-22T07:27:11.850Z,88.91
2022-10-22T07:29:38.507Z,88.72
2022-10-22T07:32:05.279Z,88.47
2022-10-22T07:34:31.978Z,87.91
2022-10-22T07:36:59.240Z,85.14
2022-10-22T07:39:25.897Z,85.36
2022-10-22T07:41:52.936Z,84.90
2022-10-22T07:44:19.861Z,84.14
2022-10-22T07:46:48.918Z,84.03
2022-10-22T07:49:16.051Z,82.39
2022-10-22T07:51:42.716Z,83.51
2022-10-22T07:54:09.367Z,83.25
2022-10-22T07:56:35.967Z,82.54
2022-10-22T08:01:29.213Z,82.25
2022-10-22T08:03:55.857Z,81.63
2022-10-22T08:06:22.568Z,80.90
2022-10-22T08:08:49.394Z,82.87
2022-10-22T08:11:16.153Z,82.12
2022-10-22T08:13:45.333Z,81.11
2022-10-22T08:16:13.379Z,80.77
2022-10-22T08:18:40.071Z,80.51
2022-10-22T08:21:07.046Z,80.28
2022-10-22T08:23:34.378Z,77.76
2022-10-22T08:26:02.897Z,78.76
2022-10-22T08:28:31.156Z,78.65
2022-10-22T08:30:57.813Z,75.73
2022-10-22T08:33:24.486Z,75.86
2022-10-22T08:35:52.305Z,77.50
2022-10-22T08:38:19.671Z,78.02
2022-10-22T08:40:56.773Z,77.98
2022-10-22T08:43:46.189Z,78.04
2022-10-22T08:46:12.892Z,76.60
2022-10-22T08:48:42.877Z,76.43
2022-10-22T08:51:16.864Z,75.25
2022-10-22T08:54:14.912Z,74.77
2022-10-22T08:56:45.796Z,74.71
2022-10-22T08:59:42.681Z,73.92
2022-10-22T09:02:19.979Z,74.45
2022-10-22T09:05:02.210Z,73.11
2022-10-22T09:07:29.966Z,73.04
2022-10-22T09:10:00.253Z,74.12
2022-10-22T09:12:27.909Z,74.34
2022-10-22T09:14:55.145Z,72.57
2022-10-22T09:17:27.764Z,72.80
2022-10-22T09:20:02.666Z,72.02
2022-10-22T09:25:23.427Z,71.02
2022-10-22T09:27:52.579Z,71.25
2022-10-22T09:30:22.601Z,71.09
2022-10-22T09:33:07.717Z,71.89
2022-10-22T09:35:44.087Z,71.67
2022-10-22T09:38:14.223Z,72.48
2022-10-22T09:40:51.110Z,71.82
2022-10-22T09:43:18.363Z,71.69
2022-10-22T09:45:46.650Z,72.49
2022-10-22T09:48:21.812Z,70.56
2022-10-22T09:50:54.845Z,70.16
2022-10-22T09:53:36.173Z,69.98
2022-10-22T09:56:10.610Z,68.42
2022-10-22T09:58:45.348Z,69.39
2022-10-22T10:01:22.239Z,68.31
2022-10-22T10:03:50.244Z,67.94
2022-10-22T10:06:22.514Z,69.10
2022-10-22T10:08:50.133Z,69.73
2022-10-22T10:11:32.485Z,68.38
2022-10-22T10:14:04.220Z,68.79
2022-10-22T10:16:48.922Z,67.59
2022-10-22T10:19:39.977Z,66.95
2022-10-22T10:22:37.238Z,67.93
2022-10-22T10:25:20.643Z,68.73
2022-10-22T10:28:19.621Z,66.02
2022-10-22T10:30:58.041Z,66.00
2022-10-22T10:33:52.390Z,66.81
2022-10-22T10:37:00.169Z,68.80
2022-10-22T10:39:39.310Z,66.20
2022-10-22T10:42:27.133Z,65.88
2022-10-22T10:45:08.752Z,65.59
2022-10-22T10:48:06.310Z,67.25
2022-10-22T10:50:55.747Z,66.23
2022-10-22T10:53:44.710Z,64.88
2022-10-22T10:56:35.607Z,66.18
2022-10-22T10:59:35.784Z,65.67
2022-10-22T11:02:11.356Z,66.13
2022-10-22T11:04:53.124Z,67.92
2022-10-22T11:07:34.758Z,67.10
2022-10-22T11:10:21.173Z,66.41
2022-10-22T11:12:52.324Z,66.93
2022-10-22T11:15:32.034Z,66.92
2022-10-22T11:18:14.569Z,68.39
2022-10-22T11:20:48.666Z,68.95
2022-10-22T11:23:22.175Z,68.95
2022-10-22T11:25:50.404Z,68.13
2022-10-22T11:28:24.783Z,67.97
2022-10-22T11:31:16.259Z,67.66
2022-10-22T11:33:57.371Z,67.76
2022-10-22T11:36:38.081Z,67.01
2022-10-22T11:39:05.369Z,67.21
2022-10-22T11:41:34.209Z,66.60
2022-10-22T11:44:25.658Z,66.75
2022-10-22T11:46:59.235Z,66.30
2022-10-22T11:49:54.912Z,66.16
2022-10-22T11:52:24.759Z,66.21
2022-10-22T11:54:55.658Z,65.94
2022-10-22T11:57:27.588Z,66.14
2022-10-22T11:59:59.018Z,66.57
2022-10-22T12:02:28.824Z,66.01
2022-10-22T12:04:56.584Z,67.78
2022-10-22T12:07:51.312Z,67.92
2022-10-22T12:10:26.625Z,67.05
2022-10-22T12:13:11.580Z,66.65
2022-10-22T12:15:48.637Z,65.82
2022-10-22T12:18:16.559Z,65.93
2022-10-22T12:20:43.402Z,66.29
2022-10-22T12:23:13.186Z,67.08
2022-10-22T12:25:39.866Z,68.13
2022-10-22T12:28:12.736Z,68.23
2022-10-22T12:30:39.542Z,68.86
2022-10-22T12:33:07.965Z,69.63
2022-10-22T12:35:43.385Z,68.72
2022-10-22T12:38:15.847Z,69.17
2022-10-22T12:40:45.986Z,69.94
2022-10-22T12:43:19.212Z,68.87
2022-10-22T12:45:49.379Z,69.60
2022-10-22T12:48:18.235Z,69.06
2022-10-22T12:50:49.364Z,70.48
2022-10-22T12:53:25.060Z,71.31
2022-10-22T12:55:54.122Z,70.85
2022-10-22T12:58:29.564Z,71.99
2022-10-22T13:01:00.762Z,70.06
2022-10-22T13:03:32.772Z,73.15
2022-10-22T13:06:33.566Z,71.86
2022-10-22T13:09:00.860Z,70.37
2022-10-22T13:11:42.726Z,70.20
2022-10-22T13:14:25.956Z,70.79
2022-10-22T13:17:07.631Z,71.31
2022-10-22T13:19:38.945Z,71.84
2022-10-22T13:22:05.767Z,69.54
2022-10-22T13:24:32.589Z,68.41
2022-10-22T13:26:59.187Z,68.25
2022-10-22T13:29:25.983Z,68.48
2022-10-22T13:31:53.989Z,68.32
2022-10-22T13:34:23.991Z,67.79
2022-10-22T13:36:51.119Z,67.92
2022-10-22T13:39:19.933Z,67.90
2022-10-22T13:41:47.006Z,69.92
2022-10-22T13:44:13.790Z,67.43
2022-10-22T13:46:42.867Z,67.87
2022-10-22T13:49:16.643Z,67.39
2022-10-22T13:51:44.257Z,67.17
2022-10-22T13:54:19.575Z,67.10
2022-10-22T13:56:46.574Z,67.10
2022-10-22T13:59:13.391Z,67.39
2022-10-22T14:01:40.449Z,67.34
2022-10-22T14:04:10.667Z,67.37
2022-10-22T14:09:14.895Z,67.21
2022-10-22T14:11:41.661Z,67.58
2022-10-22T14:14:09.171Z,68.20
2022-10-22T14:16:37.527Z,66.63
2022-10-22T14:19:07.214Z,66.13
2022-10-22T14:21:37.563Z,67.99
2022-10-22T14:24:06.174Z,67.03
2022-10-22T14:26:35.331Z,66.75
2022-10-22T14:29:11.323Z,67.95
2022-10-22T14:31:44.294Z,66.93
2022-10-22T14:34:13.717Z,66.68
2022-10-22T14:36:43.386Z,67.83
2022-10-22T14:39:10.338Z,67.78
2022-10-22T14:41:37.437Z,67.10
2022-10-22T14:44:04.489Z,64.83
2022-10-22T14:46:31.807Z,63.41
2022-10-22T14:48:58.778Z,63.73
2022-10-22T14:51:25.519Z,62.37
2022-10-22T14:53:52.543Z,62.25
2022-10-22T14:56:21.322Z,61.54
2022-10-22T14:58:48.532Z,61.70
2022-10-22T15:01:15.456Z,61.24
2022-10-22T15:03:42.194Z,62.55
2022-10-22T15:06:09.261Z,64.39
2022-10-22T15:08:36.075Z,64.66
2022-10-22T15:11:05.766Z,64.21
2022-10-22T15:13:33.125Z,66.24
2022-10-22T15:16:01.018Z,66.67
2022-10-22T15:18:28.778Z,67.52
2022-10-22T15:21:00.696Z,66.67
2022-10-22T15:23:27.459Z,67.52
2022-10-22T15:25:55.130Z,68.62
2022-10-22T15:28:22.351Z,69.20
2022-10-22T15:30:57.444Z,69.44
2022-10-22T15:33:25.339Z,69.92
2022-10-22T15:35:52.746Z,68.39
2022-10-22T15:38:21.433Z,68.47
2022-10-22T15:40:48.517Z,69.10
2022-10-22T15:43:16.263Z,69.40
2022-10-22T15:45:43.419Z,70.23
2022-10-22T15:48:13.530Z,70.22
2022-10-22T15:50:42.632Z,70.73
2022-10-22T15:53:11.232Z,70.69
2022-10-22T15:55:38.184Z,70.02
2022-10-22T15:58:04.784Z,71.25
2022-10-22T16:00:33.024Z,71.89
2022-10-22T16:02:59.607Z,71.77
2022-10-22T16:05:27.328Z,70.46
2022-10-22T16:07:55.660Z,71.01
2022-10-22T16:10:22.813Z,70.82
2022-10-22T16:12:51.577Z,70.52
2022-10-22T16:15:18.438Z,70.58
2022-10-22T16:17:45.084Z,71.05
2022-10-22T16:22:39.696Z,72.18
2022-10-22T16:25:07.063Z,72.32
2022-10-22T16:27:33.681Z,72.59
2022-10-22T16:30:00.267Z,72.57
2022-10-22T16:32:27.096Z,73.14
2022-10-22T16:34:53.683Z,73.35
2022-10-22T16:37:20.352Z,73.20
2022-10-22T16:39:46.951Z,73.47
2022-10-22T16:42:14.229Z,73.45
2022-10-22T16:44:40.833Z,73.67
2022-10-22T16:47:07.491Z,73.35
2022-10-22T16:49:34.271Z,73.47
2022-10-22T16:52:01.021Z,72.26
2022-10-22T16:54:28.093Z,72.49
2022-10-22T16:56:54.678Z,72.62
2022-10-22T16:59:21.309Z,72.68
2022-10-22T17:01:47.904Z,72.32
2022-10-22T17:04:17.173Z,72.34
2022-10-22T17:06:44.058Z,73.03
2022-10-22T17:09:11.856Z,72.82
2022-10-22T17:11:40.263Z,73.02
2022-10-22T17:14:09.753Z,73.01
2022-10-22T17:16:36.384Z,73.15
2022-10-22T17:19:04.182Z,72.90
2022-10-22T17:21:30.917Z,72.06
2022-10-22T17:23:58.149Z,71.72
2022-10-22T17:26:26.622Z,70.31
2022-10-22T17:28:54.257Z,70.45
2022-10-22T17:31:26.681Z,70.55
2022-10-22T17:33:55.932Z,71.33
2022-10-22T17:36:24.198Z,72.02
2022-10-22T17:38:59.281Z,72.43
2022-10-22T17:41:36.900Z,72.86
2022-10-22T17:44:06.148Z,73.03
2022-10-22T17:46:33.096Z,73.47
2022-10-22T17:49:03.772Z,73.65
2022-10-22T17:51:31.692Z,74.13
2022-10-22T17:53:58.366Z,73.51
2022-10-22T17:56:30.227Z,74.36
2022-10-22T17:58:57.291Z,74.93
2022-10-22T18:01:32.451Z,75.68
2022-10-22T18:04:02.094Z,76.13
2022-10-22T18:06:29.188Z,76.24
2022-10-22T18:08:56.077Z,75.26
2022-10-22T18:11:25.521Z,74.75
2022-10-22T18:13:54.826Z,75.53
2022-10-22T18:16:22.163Z,75.88
2022-10-22T18:18:51.267Z,76.61
2022-10-22T18:21:18.087Z,77.39
2022-10-22T18:23:45.611Z,78.64
2022-10-22T18:26:12.853Z,78.48
2022-10-22T18:28:39.729Z,78.05
2022-10-22T18:31:12.995Z,77.93
2022-10-22T18:33:40.706Z,77.71
2022-10-22T18:36:19.036Z,77.62
2022-10-22T18:38:56.010Z,77.26
2022-10-22T18:41:23.206Z,77.35
2022-10-22T18:43:55.013Z,77.24
2022-10-22T18:46:23.879Z,77.06
2022-10-22T18:48:54.761Z,77.26
2022-10-22T18:51:22.521Z,78.13
2022-10-22T18:54:05.418Z,78.03
2022-10-22T18:56:40.656Z,77.98
2022-10-22T18:59:13.210Z,77.82
2022-10-22T19:01:40.212Z,77.61
2022-10-22T19:04:06.890Z,76.96
2022-10-22T19:06:36.731Z,77.66
2022-10-22T19:09:04.586Z,77.57
2022-10-22T19:11:31.841Z,77.45
2022-10-22T19:13:58.683Z,77.30
2022-10-22T19:16:26.705Z,77.58
2022-10-22T19:19:03.207Z,77.56
2022-10-22T19:21:29.918Z,77.57
2022-10-22T19:23:58.607Z,76.27
2022-10-22T19:26:27.586Z,76.61
2022-10-22T19:28:55.222Z,77.16
2022-10-22T19:31:23.885Z,77.75
2022-10-22T19:33:52.217Z,78.13
2022-10-22T19:36:19.732Z,78.36
2022-10-22T19:38:48.916Z,78.18
2022-10-22T19:41:18.590Z,78.55
2022-10-22T19:43:49.083Z,78.94
2022-10-22T19:46:16.059Z,78.86
2022-10-22T19:48:42.812Z,78.90
2022-10-22T19:51:14.953Z,78.41
2022-10-22T19:53:41.744Z,77.71
2022-10-22T19:56:10.837Z,77.08
2022-10-22T19:58:38.261Z,75.74
2022-10-22T20:01:11.290Z,75.95
2022-10-22T20:03:38.902Z,77.62
2022-10-22T20:06:07.683Z,77.71
2022-10-22T20:08:37.831Z,78.27
2022-10-22T20:11:07.103Z,78.29
2022-10-22T20:13:35.512Z,78.86
2022-10-22T20:16:02.510Z,79.15
2022-10-22T20:18:29.395Z,79.69
2022-10-22T20:20:56.235Z,79.98
2022-10-22T20:23:23.313Z,80.31
2022-10-22T20:25:49.909Z,80.02
2022-10-22T20:28:16.923Z,79.89
2022-10-22T20:30:45.538Z,80.24
2022-10-22T20:33:15.557Z,80.04
2022-10-22T20:35:42.386Z,80.07
2022-10-22T20:38:13.776Z,80.56
2022-10-22T20:40:40.526Z,80.78
2022-10-22T20:43:10.501Z,80.70
2022-10-22T20:45:39.002Z,80.96
2022-10-22T20:50:33.349Z,79.53
2022-10-22T20:53:02.293Z,80.03
2022-10-22T20:55:30.686Z,80.37
2022-10-22T20:57:57.702Z,80.37
2022-10-22T21:00:24.499Z,80.63
2022-10-22T21:02:51.129Z,80.58
2022-10-22T21:05:18.082Z,80.94
2022-10-22T21:07:46.183Z,80.95
2022-10-22T21:10:14.978Z,80.96
2022-10-22T21:12:42.450Z,81.49
2022-10-22T21:15:12.644Z,82.23
2022-10-22T21:17:40.710Z,81.89
2022-10-22T21:22:37.606Z,81.57
2022-10-22T21:25:04.519Z,80.62
2022-10-22T21:27:31.117Z,80.80
2022-10-22T21:29:57.936Z,80.94
2022-10-22T21:32:28.320Z,81.22
2022-10-22T21:34:56.815Z,81.42
2022-10-22T21:37:30.258Z,81.59
2022-10-22T21:39:58.356Z,82.41
2022-10-22T21:42:25.674Z,82.49
2022-10-22T21:44:53.774Z,82.88
2022-10-22T21:47:22.225Z,82.74
2022-10-22T21:49:49.229Z,82.82
2022-10-22T21:52:15.807Z,83.22
2022-10-22T21:54:42.410Z,83.62
2022-10-22T21:57:09.058Z,83.64
2022-10-22T21:59:36.398Z,84.07
2022-10-22T22:02:05.641Z,84.11
2022-10-22T22:04:33.082Z,83.97
2022-10-22T22:06:59.705Z,84.02
2022-10-22T22:09:26.371Z,83.66
2022-10-22T22:11:52.941Z,83.82
2022-10-22T22:14:19.620Z,83.30
2022-10-22T22:16:46.242Z,82.98
2022-10-22T22:19:12.845Z,83.64
2022-10-22T22:21:40.769Z,84.14
2022-10-22T22:24:09.091Z,83.37
2022-10-22T22:26:36.529Z,82.30
2022-10-22T22:29:03.801Z,83.02
2022-10-22T22:31:34.928Z,83.39
2022-10-22T22:34:07.758Z,83.85
2022-10-22T22:36:39.449Z,84.00
2022-10-22T22:39:08.290Z,83.37
2022-10-22T22:41:34.944Z,83.92
2022-10-22T22:44:02.023Z,84.05
2022-10-22T22:46:28.693Z,83.58
2022-10-22T22:48:55.714Z,84.37
2022-10-22T22:51:22.370Z,84.09
2022-10-22T22:53:49.003Z,85.12
2022-10-22T22:56:24.311Z,84.55
2022-10-22T22:58:51.360Z,85.40
2022-10-22T23:01:19.448Z,85.58
2022-10-22T23:03:49.296Z,85.96
2022-10-22T23:06:16.139Z,86.56
2022-10-22T23:08:43.244Z,86.76
2022-10-22T23:11:13.915Z,86.62
2022-10-22T23:13:42.630Z,86.38
2022-10-22T23:16:21.013Z,86.99
2022-10-22T23:18:49.326Z,87.34
2022-10-22T23:21:22.439Z,86.95
2022-10-22T23:23:53.027Z,87.43
2022-10-22T23:26:23.128Z,88.22
2022-10-22T23:28:59.817Z,87.06
2022-10-22T23:31:29.733Z,86.53
2022-10-22T23:33:57.615Z,86.42
2022-10-22T23:36:24.758Z,86.86
2022-10-22T23:38:52.791Z,87.28
2022-10-22T23:41:19.785Z,88.07
2022-10-22T23:43:46.444Z,88.18
2022-10-22T23:46:14.240Z,88.77
2022-10-22T23:48:40.962Z,88.53
2022-10-22T23:51:11.159Z,88.98
2022-10-22T23:53:38.260Z,88.77
2022-10-22T23:56:07.450Z,88.63
2022-10-22T23:58:34.685Z,88.17
